createdAt,value
2022-08-11T00:00:39.304Z,2.00
2022-08-11T00:06:10.566Z,2.17
2022-08-11T00:09:02.944Z,2.25
2022-08-11T00:11:58.829Z,2.35
2022-08-11T00:14:50.965Z,2.02
2022-08-11T00:17:42.945Z,1.92
2022-08-11T00:20:35.778Z,2.22
2022-08-11T00:26:08.302Z,2.30
2022-08-11T00:29:01.026Z,2.10
2022-08-11T00:31:54.103Z,2.22
2022-08-11T00:34:48.174Z,2.35
2022-08-11T00:37:40.630Z,2.30
2022-08-11T00:40:36.038Z,2.25
2022-08-11T00:43:32.841Z,2.25
2022-08-11T00:46:31.158Z,2.27
2022-08-11T00:49:27.770Z,2.20
2022-08-11T00:52:25.880Z,2.30
2022-08-11T00:55:35.792Z,2.15
2022-08-11T00:58:53.292Z,2.20
2022-08-11T01:01:52.430Z,2.02
2022-08-11T01:05:24.225Z,2.05
2022-08-11T01:09:02.468Z,2.15
2022-08-11T01:12:23.073Z,2.40
2022-08-11T01:15:35.141Z,2.10
2022-08-11T01:19:22.658Z,2.20
2022-08-11T01:22:46.310Z,1.90
2022-08-11T01:26:02.985Z,2.30
2022-08-11T01:29:37.613Z,2.33
2022-08-11T01:36:26.871Z,2.30
2022-08-11T01:39:37.283Z,2.40
2022-08-11T01:43:31.104Z,2.35
2022-08-11T01:46:25.526Z,2.17
2022-08-11T01:50:06.424Z,2.40
2022-08-11T01:52:18.379Z,2.60
2022-08-11T01:55:14.693Z,2.05
2022-08-11T01:58:10.817Z,2.40
2022-08-11T02:01:05.991Z,2.65
2022-08-11T02:06:56.273Z,2.33
2022-08-11T02:09:57.272Z,2.27
2022-08-11T02:12:53.343Z,2.37
2022-08-11T02:15:48.802Z,2.25
2022-08-11T02:21:41.926Z,2.20
2022-08-11T02:24:37.971Z,2.33
2022-08-11T02:27:33.145Z,2.40
2022-08-11T02:30:26.803Z,2.70
2022-08-11T02:33:25.665Z,2.10
2022-08-11T02:36:21.292Z,2.30
2022-08-11T02:39:16.173Z,2.47
2022-08-11T02:44:54.714Z,2.30
2022-08-11T02:47:52.283Z,2.58
2022-08-11T02:53:40.253Z,2.50
2022-08-11T02:56:35.445Z,2.37
2022-08-11T02:59:53.451Z,2.75
2022-08-11T03:02:53.029Z,2.60
2022-08-11T03:06:03.569Z,2.27
2022-08-11T03:12:13.465Z,2.40
2022-08-11T03:15:28.047Z,2.52
2022-08-11T03:21:05.930Z,2.65
2022-08-11T03:24:01.673Z,2.37
2022-08-11T03:26:56.796Z,2.35
2022-08-11T03:29:51.368Z,2.40
2022-08-11T03:32:53.334Z,2.60
2022-08-11T03:35:48.845Z,2.45
2022-08-11T03:39:00.038Z,2.40
2022-08-11T03:42:03.787Z,2.58
2022-08-11T03:45:06.698Z,2.47
2022-08-11T03:48:09.692Z,2.90
2022-08-11T03:51:06.421Z,2.42
2022-08-11T03:57:36.738Z,2.70
2022-08-11T04:04:25.450Z,2.33
2022-08-11T04:07:40.799Z,2.17
2022-08-11T04:11:17.375Z,2.40
2022-08-11T04:14:53.395Z,2.20
2022-08-11T04:21:13.678Z,2.58
2022-08-11T04:24:39.655Z,2.60
2022-08-11T04:28:05.383Z,2.65
2022-08-11T04:34:19.000Z,2.35
2022-08-11T04:37:44.592Z,2.42
2022-08-11T04:40:59.147Z,2.42
2022-08-11T04:48:03.741Z,2.95
2022-08-11T04:51:16.659Z,2.40
2022-08-11T04:54:26.342Z,2.50
2022-08-11T04:57:40.663Z,2.52
2022-08-11T05:07:06.469Z,2.40
2022-08-11T05:10:14.865Z,2.20
2022-08-11T05:16:05.862Z,2.33
2022-08-11T05:19:16.133Z,2.22
2022-08-11T05:22:28.836Z,2.10
2022-08-11T05:26:42.618Z,2.10
2022-08-11T05:31:33.796Z,2.20
2022-08-11T05:34:46.722Z,2.30
2022-08-11T05:37:42.523Z,2.47
2022-08-11T05:40:53.131Z,2.52
2022-08-11T05:44:19.647Z,2.50
2022-08-11T05:47:16.885Z,2.47
2022-08-11T05:50:31.298Z,2.47
2022-08-11T05:53:46.095Z,2.67
2022-08-11T05:56:37.040Z,2.60
2022-08-11T06:02:11.278Z,2.60
2022-08-11T06:07:50.194Z,2.67
2022-08-11T06:10:44.127Z,2.70
2022-08-11T06:16:24.943Z,2.47
2022-08-11T06:19:16.851Z,2.62
2022-08-11T06:22:11.517Z,2.40
2022-08-11T06:25:05.825Z,2.70
2022-08-11T06:30:42.792Z,2.60
2022-08-11T06:36:20.410Z,2.70
2022-08-11T06:39:17.277Z,2.70
2022-08-11T06:42:12.296Z,3.00
2022-08-11T06:45:11.714Z,2.80
2022-08-11T06:48:06.539Z,3.10
2022-08-11T06:51:15.103Z,3.15
2022-08-11T06:54:07.734Z,2.87
2022-08-11T06:57:33.908Z,2.80
2022-08-11T07:00:33.178Z,2.75
2022-08-11T07:06:15.759Z,2.65
2022-08-11T07:13:02.518Z,2.90
2022-08-11T07:16:12.751Z,2.92
2022-08-11T07:22:01.345Z,3.10
2022-08-11T07:27:47.103Z,2.80
2022-08-11T07:30:41.380Z,2.85
2022-08-11T07:36:13.811Z,3.30
2022-08-11T07:39:05.856Z,2.83
2022-08-11T07:41:59.014Z,3.15
2022-08-11T07:47:55.940Z,3.35
2022-08-11T07:51:06.080Z,3.27
2022-08-11T07:53:58.435Z,3.17
2022-08-11T07:56:54.944Z,3.05
2022-08-11T08:00:04.666Z,3.27
2022-08-11T08:06:28.653Z,2.92
2022-08-11T08:09:25.587Z,3.02
2022-08-11T08:15:17.600Z,3.00
2022-08-11T08:20:50.800Z,2.92
2022-08-11T08:24:17.530Z,2.83
2022-08-11T08:27:18.037Z,3.00
2022-08-11T08:35:55.623Z,3.20
2022-08-11T08:38:41.711Z,2.83
2022-08-11T08:41:44.082Z,2.60
2022-08-11T08:44:47.418Z,2.95
2022-08-11T08:47:43.409Z,2.45
2022-08-11T08:53:22.766Z,3.08
2022-08-11T08:56:14.657Z,2.60
2022-08-11T08:59:08.363Z,2.70
2022-08-11T09:02:02.755Z,3.10
2022-08-11T09:07:46.227Z,3.45
2022-08-11T09:10:39.954Z,3.05
2022-08-11T09:16:17.067Z,2.65
2022-08-11T09:19:19.537Z,3.20
2022-08-11T09:22:29.061Z,2.70
2022-08-11T09:25:40.746Z,2.35
2022-08-11T09:31:21.512Z,2.42
2022-08-11T09:34:18.309Z,2.72
2022-08-11T09:37:55.531Z,2.72
2022-08-11T09:40:32.316Z,3.02
2022-08-11T09:43:42.938Z,3.00
2022-08-11T09:46:35.492Z,3.05
2022-08-11T09:49:27.594Z,2.83
2022-08-11T09:52:21.017Z,2.70
2022-08-11T09:55:16.934Z,2.47
2022-08-11T09:58:41.820Z,2.80
2022-08-11T10:01:14.131Z,2.77
2022-08-11T10:04:10.855Z,2.77
2022-08-11T10:07:05.648Z,2.70
2022-08-11T10:10:00.525Z,2.85
2022-08-11T10:12:55.067Z,2.80
2022-08-11T10:15:59.725Z,3.00
2022-08-11T10:21:34.764Z,2.85
2022-08-11T10:24:44.378Z,2.98
2022-08-11T10:28:17.674Z,2.95
2022-08-11T10:31:02.845Z,3.00
2022-08-11T10:34:01.753Z,3.20
2022-08-11T10:36:53.544Z,2.90
2022-08-11T10:39:54.565Z,2.80
2022-08-11T10:45:49.808Z,3.15
2022-08-11T10:51:51.069Z,3.00
2022-08-11T10:54:53.944Z,2.92
2022-08-11T10:58:07.150Z,3.08
2022-08-11T11:01:05.659Z,2.60
2022-08-11T11:04:03.988Z,2.95
2022-08-11T11:09:52.565Z,3.10
2022-08-11T11:15:46.419Z,3.20
2022-08-11T11:18:39.402Z,3.00
2022-08-11T11:24:10.029Z,2.98
2022-08-11T11:30:01.010Z,2.92
2022-08-11T11:35:40.223Z,3.02
2022-08-11T11:41:30.879Z,3.17
2022-08-11T11:44:23.811Z,2.77
2022-08-11T11:47:17.099Z,2.67
2022-08-11T11:50:11.209Z,2.60
2022-08-11T11:53:14.476Z,2.55
2022-08-11T11:56:22.156Z,2.45
2022-08-11T11:59:38.486Z,2.67
2022-08-11T12:02:30.169Z,2.60
2022-08-11T12:05:34.077Z,2.60
2022-08-11T12:11:25.167Z,2.60
2022-08-11T12:14:19.018Z,2.40
2022-08-11T12:19:52.231Z,2.37
2022-08-11T12:23:02.005Z,2.50
2022-08-11T12:26:26.569Z,2.62
2022-08-11T12:31:44.359Z,2.33
2022-08-11T12:34:41.773Z,2.60
2022-08-11T12:37:39.009Z,2.40
2022-08-11T12:44:23.442Z,2.33
2022-08-11T12:47:15.030Z,2.45
2022-08-11T12:52:50.198Z,2.30
2022-08-11T12:56:03.575Z,2.45
2022-08-11T12:59:13.784Z,2.92
2022-08-11T13:02:23.888Z,2.77
2022-08-11T13:05:18.057Z,2.37
2022-08-11T13:08:11.256Z,2.62
2022-08-11T13:11:21.845Z,2.72
2022-08-11T13:14:15.287Z,2.40
2022-08-11T13:20:02.388Z,2.65
2022-08-11T13:23:11.225Z,2.75
2022-08-11T13:28:45.485Z,2.25
2022-08-11T13:31:37.327Z,2.58
2022-08-11T13:34:31.396Z,2.10
2022-08-11T13:42:59.388Z,2.30
2022-08-11T13:45:55.315Z,2.33
2022-08-11T13:51:54.074Z,2.10
2022-08-11T13:58:08.469Z,1.95
2022-08-11T14:00:34.507Z,1.77
2022-08-11T14:04:29.238Z,2.05
2022-08-11T14:06:29.877Z,1.80
2022-08-11T14:09:29.153Z,1.90
2022-08-11T14:15:20.833Z,1.73
2022-08-11T14:18:21.002Z,1.57
2022-08-11T14:21:44.719Z,1.80
2022-08-11T14:28:22.234Z,1.50
2022-08-11T14:30:47.062Z,1.60
2022-08-11T14:38:57.366Z,1.45
2022-08-11T14:42:18.705Z,1.30
2022-08-11T14:47:52.446Z,1.30
2022-08-11T14:50:44.005Z,1.35
2022-08-11T14:56:32.582Z,1.50
2022-08-11T14:59:24.764Z,1.47
2022-08-11T15:02:34.465Z,1.60
2022-08-11T15:10:51.270Z,1.30
2022-08-11T15:16:46.131Z,1.40
2022-08-11T15:19:41.308Z,1.22
2022-08-11T15:22:51.892Z,1.40
2022-08-11T15:28:45.547Z,1.62
2022-08-11T15:32:03.402Z,1.30
2022-08-11T15:35:16.605Z,1.47
2022-08-11T15:38:12.011Z,1.42
2022-08-11T15:44:02.879Z,1.65
2022-08-11T15:46:57.014Z,1.65
2022-08-11T15:50:12.901Z,1.60
2022-08-11T15:52:49.925Z,1.65
2022-08-11T15:55:43.546Z,1.52
2022-08-11T16:01:34.682Z,1.90
2022-08-11T16:07:42.975Z,1.50
2022-08-11T16:10:37.823Z,1.80
2022-08-11T16:16:17.524Z,1.80
2022-08-11T16:21:54.820Z,2.00
2022-08-11T16:27:46.512Z,1.70
2022-08-11T16:30:44.359Z,2.08
2022-08-11T16:36:51.773Z,1.65
2022-08-11T16:39:45.333Z,2.05
2022-08-11T16:43:05.332Z,1.95
2022-08-11T16:46:07.242Z,1.90
2022-08-11T16:49:01.659Z,2.00
2022-08-11T16:51:53.531Z,1.75
2022-08-11T16:57:47.149Z,1.85
2022-08-11T17:03:42.090Z,1.80
2022-08-11T17:06:47.259Z,1.90
2022-08-11T17:12:43.078Z,1.92
2022-08-11T17:15:52.333Z,1.95
2022-08-11T17:21:27.258Z,2.00
2022-08-11T17:24:19.772Z,1.70
2022-08-11T17:27:20.389Z,1.90
2022-08-11T17:30:16.071Z,1.90
2022-08-11T17:35:46.667Z,2.10
2022-08-11T17:38:39.857Z,2.33
2022-08-11T17:41:48.954Z,2.40
2022-08-11T17:44:59.582Z,2.00
2022-08-11T17:50:32.302Z,2.00
2022-08-11T17:56:34.005Z,2.10
2022-08-11T17:59:48.849Z,2.40
2022-08-11T18:02:56.610Z,2.37
2022-08-11T18:05:49.977Z,2.20
2022-08-11T18:09:02.300Z,2.00
2022-08-11T18:12:13.280Z,2.05
2022-08-11T18:15:23.109Z,2.30
2022-08-11T18:21:12.680Z,2.40
2022-08-11T18:24:25.224Z,2.90
2022-08-11T18:27:36.410Z,2.75
2022-08-11T18:30:45.886Z,2.58
2022-08-11T18:34:13.853Z,2.25
2022-08-11T18:37:20.621Z,2.50
2022-08-11T18:43:04.639Z,2.67
2022-08-11T18:46:17.851Z,3.33
2022-08-11T18:50:02.434Z,2.30
2022-08-11T18:55:25.207Z,2.75
2022-08-11T19:01:14.301Z,2.20
2022-08-11T19:04:25.494Z,2.27
2022-08-11T19:07:37.817Z,1.92
2022-08-11T19:10:46.769Z,2.75
2022-08-11T19:13:56.363Z,2.70
2022-08-11T19:17:07.117Z,2.40
2022-08-11T19:20:17.812Z,2.33
2022-08-11T19:26:09.100Z,2.05
2022-08-11T19:30:05.234Z,2.50
2022-08-11T19:32:33.099Z,2.50
2022-08-11T19:35:42.210Z,2.40
2022-08-11T19:38:53.158Z,2.55
2022-08-11T19:42:03.725Z,2.40
2022-08-11T19:45:13.063Z,2.58
2022-08-11T19:48:31.661Z,2.98
2022-08-11T19:51:33.970Z,3.20
2022-08-11T19:54:46.732Z,2.77
2022-08-11T19:57:58.414Z,3.00
2022-08-11T20:01:10.992Z,3.00
2022-08-11T20:04:19.835Z,2.67
2022-08-11T20:07:29.877Z,2.37
2022-08-11T20:10:41.718Z,1.90
2022-08-11T20:13:51.536Z,2.12
2022-08-11T20:17:00.343Z,2.20
2022-08-11T20:22:50.465Z,2.40
2022-08-11T20:26:14.156Z,2.45
2022-08-11T20:29:13.179Z,2.30
2022-08-11T20:32:23.945Z,2.33
2022-08-11T20:35:32.734Z,2.22
2022-08-11T20:44:06.001Z,2.10
2022-08-11T20:47:14.856Z,2.33
2022-08-11T20:50:26.089Z,2.27
2022-08-11T20:56:19.449Z,2.30
2022-08-11T21:02:10.525Z,2.42
2022-08-11T21:06:08.894Z,2.33
2022-08-11T21:08:31.581Z,2.40
2022-08-11T21:11:42.965Z,2.42
2022-08-11T21:17:33.402Z,2.60
2022-08-11T21:20:43.275Z,2.30
2022-08-11T21:29:11.846Z,2.08
2022-08-11T21:32:21.463Z,2.20
2022-08-11T21:35:31.406Z,2.25
2022-08-11T21:38:41.767Z,2.17
2022-08-11T21:41:52.264Z,2.22
2022-08-11T21:45:03.013Z,2.10
2022-08-11T21:48:14.376Z,2.33
2022-08-11T21:51:23.577Z,2.45
2022-08-11T21:57:16.964Z,2.45
2022-08-11T22:00:35.065Z,2.30
2022-08-11T22:06:30.251Z,2.47
2022-08-11T22:09:39.055Z,2.33
2022-08-11T22:12:48.779Z,2.37
2022-08-11T22:15:58.333Z,1.98
2022-08-11T22:19:08.880Z,1.90
2022-08-11T22:22:18.292Z,2.00
2022-08-11T22:25:38.632Z,2.20
2022-08-11T22:31:20.693Z,2.15
2022-08-11T22:34:29.714Z,2.08
2022-08-11T22:37:40.893Z,2.20
2022-08-11T22:40:50.548Z,2.10
2022-08-11T22:43:59.444Z,1.77
2022-08-11T22:47:11.295Z,1.80
2022-08-11T22:50:22.100Z,2.00
2022-08-11T22:56:11.355Z,2.05
2022-08-11T22:59:20.699Z,1.80
2022-08-11T23:02:48.140Z,2.17
2022-08-11T23:05:57.496Z,2.08
2022-08-11T23:09:07.506Z,2.33
2022-08-11T23:12:17.207Z,1.92
2022-08-11T23:15:28.443Z,2.00
2022-08-11T23:18:38.139Z,1.92
2022-08-11T23:21:48.250Z,1.87
2022-08-11T23:24:57.668Z,1.90
2022-08-11T23:28:08.038Z,2.20
2022-08-11T23:31:19.150Z,2.00
2022-08-11T23:37:08.030Z,2.17
2022-08-11T23:40:17.150Z,2.45
2022-08-11T23:43:28.451Z,2.02
2022-08-11T23:46:40.057Z,2.80
2022-08-11T23:49:49.565Z,2.70
2022-08-11T23:52:58.399Z,2.55
2022-08-11T23:56:08.240Z,2.70
